sensor_id;sensor_type;location;lat;lon;timestamp;P1;durP1;ratioP1;P2;durP2;ratioP2
59271;SDS011;45043;51.068;7.026;2024-03-02T00:01:03;2.93;;;2.63;;
59271;SDS011;45043;51.068;7.026;2024-03-02T00:04:04;3.30;;;3.00;;
59271;SDS011;45043;51.068;7.026;2024-03-02T00:07:08;3.30;;;3.00;;
59271;SDS011;45043;51.068;7.026;2024-03-02T00:10:09;4.40;;;3.13;;
59271;SDS011;45043;51.068;7.026;2024-03-02T00:13:12;3.67;;;2.73;;
59271;SDS011;45043;51.068;7.026;2024-03-02T00:16:14;3.63;;;2.97;;
59271;SDS011;45043;51.068;7.026;2024-03-02T00:19:16;3.50;;;3.20;;
59271;SDS011;45043;51.068;7.026;2024-03-02T00:22:18;3.13;;;2.83;;
59271;SDS011;45043;51.068;7.026;2024-03-02T00:25:19;3.80;;;2.87;;
59271;SDS011;45043;51.068;7.026;2024-03-02T00:28:29;3.03;;;2.60;;
59271;SDS011;45043;51.068;7.026;2024-03-02T00:31:35;3.07;;;2.87;;
59271;SDS011;45043;51.068;7.026;2024-03-02T00:34:35;3.23;;;2.93;;
59271;SDS011;45043;51.068;7.026;2024-03-02T00:37:36;3.50;;;2.90;;
59271;SDS011;45043;51.068;7.026;2024-03-02T00:40:37;3.37;;;2.77;;
59271;SDS011;45043;51.068;7.026;2024-03-02T00:46:46;3.33;;;2.90;;
59271;SDS011;45043;51.068;7.026;2024-03-02T00:49:48;2.90;;;2.50;;
59271;SDS011;45043;51.068;7.026;2024-03-02T00:52:49;2.90;;;2.53;;
59271;SDS011;45043;51.068;7.026;2024-03-02T00:55:50;3.50;;;2.73;;
59271;SDS011;45043;51.068;7.026;2024-03-02T00:58:52;2.73;;;2.53;;
59271;SDS011;45043;51.068;7.026;2024-03-02T01:01:53;3.73;;;2.70;;
59271;SDS011;45043;51.068;7.026;2024-03-02T01:04:54;5.20;;;2.67;;
59271;SDS011;45043;51.068;7.026;2024-03-02T01:07:55;4.53;;;2.60;;
59271;SDS011;45043;51.068;7.026;2024-03-02T01:10:55;2.67;;;2.37;;
59271;SDS011;45043;51.068;7.026;2024-03-02T01:13:56;3.83;;;2.50;;
59271;SDS011;45043;51.068;7.026;2024-03-02T01:16:57;3.27;;;2.73;;
59271;SDS011;45043;51.068;7.026;2024-03-02T01:19:58;3.97;;;2.40;;
59271;SDS011;45043;51.068;7.026;2024-03-02T01:22:59;2.97;;;2.67;;
59271;SDS011;45043;51.068;7.026;2024-03-02T01:26:00;2.90;;;2.70;;
59271;SDS011;45043;51.068;7.026;2024-03-02T01:29:01;2.60;;;2.40;;
59271;SDS011;45043;51.068;7.026;2024-03-02T01:32:02;2.67;;;2.37;;
59271;SDS011;45043;51.068;7.026;2024-03-02T01:35:04;2.30;;;2.10;;
59271;SDS011;45043;51.068;7.026;2024-03-02T01:38:06;3.23;;;2.70;;
59271;SDS011;45043;51.068;7.026;2024-03-02T01:41:07;2.67;;;2.47;;
59271;SDS011;45043;51.068;7.026;2024-03-02T01:44:08;3.33;;;2.70;;
59271;SDS011;45043;51.068;7.026;2024-03-02T01:47:09;2.20;;;2.00;;
59271;SDS011;45043;51.068;7.026;2024-03-02T01:50:13;2.23;;;2.03;;
59271;SDS011;45043;51.068;7.026;2024-03-02T01:53:14;2.80;;;2.20;;
59271;SDS011;45043;51.068;7.026;2024-03-02T01:56:15;2.40;;;2.20;;
59271;SDS011;45043;51.068;7.026;2024-03-02T01:59:16;3.20;;;2.67;;
59271;SDS011;45043;51.068;7.026;2024-03-02T02:02:17;2.00;;;1.87;;
59271;SDS011;45043;51.068;7.026;2024-03-02T02:05:18;2.83;;;2.43;;
59271;SDS011;45043;51.068;7.026;2024-03-02T02:08:19;2.53;;;2.30;;
59271;SDS011;45043;51.068;7.026;2024-03-02T02:11:20;3.20;;;2.53;;
59271;SDS011;45043;51.068;7.026;2024-03-02T02:14:20;2.30;;;2.10;;
59271;SDS011;45043;51.068;7.026;2024-03-02T02:17:21;2.10;;;1.90;;
59271;SDS011;45043;51.068;7.026;2024-03-02T02:20:21;2.00;;;1.70;;
59271;SDS011;45043;51.068;7.026;2024-03-02T02:23:22;2.63;;;2.37;;
59271;SDS011;45043;51.068;7.026;2024-03-02T02:26:23;2.40;;;2.10;;
59271;SDS011;45043;51.068;7.026;2024-03-02T02:29:24;2.47;;;2.27;;
59271;SDS011;45043;51.068;7.026;2024-03-02T02:32:25;2.70;;;2.50;;
59271;SDS011;45043;51.068;7.026;2024-03-02T02:35:25;3.10;;;2.30;;
59271;SDS011;45043;51.068;7.026;2024-03-02T02:38:26;2.40;;;2.10;;
59271;SDS011;45043;51.068;7.026;2024-03-02T02:41:27;3.63;;;2.17;;
59271;SDS011;45043;51.068;7.026;2024-03-02T02:44:28;2.03;;;1.83;;
59271;SDS011;45043;51.068;7.026;2024-03-02T02:47:29;2.33;;;2.13;;
59271;SDS011;45043;51.068;7.026;2024-03-02T02:50:31;3.13;;;2.07;;
59271;SDS011;45043;51.068;7.026;2024-03-02T02:53:32;2.97;;;2.67;;
59271;SDS011;45043;51.068;7.026;2024-03-02T02:56:35;2.07;;;1.97;;
59271;SDS011;45043;51.068;7.026;2024-03-02T02:59:36;3.40;;;2.73;;
59271;SDS011;45043;51.068;7.026;2024-03-02T03:02:37;3.27;;;2.33;;
59271;SDS011;45043;51.068;7.026;2024-03-02T03:05:39;2.53;;;2.23;;
59271;SDS011;45043;51.068;7.026;2024-03-02T03:08:39;2.60;;;2.40;;
59271;SDS011;45043;51.068;7.026;2024-03-02T03:11:40;2.60;;;2.37;;
59271;SDS011;45043;51.068;7.026;2024-03-02T03:14:41;2.73;;;2.30;;
59271;SDS011;45043;51.068;7.026;2024-03-02T03:17:42;2.40;;;2.20;;
59271;SDS011;45043;51.068;7.026;2024-03-02T03:20:42;3.10;;;2.17;;
59271;SDS011;45043;51.068;7.026;2024-03-02T03:23:44;2.63;;;2.43;;
59271;SDS011;45043;51.068;7.026;2024-03-02T03:26:45;2.43;;;1.97;;
59271;SDS011;45043;51.068;7.026;2024-03-02T03:29:45;2.93;;;2.50;;
59271;SDS011;45043;51.068;7.026;2024-03-02T03:32:46;3.53;;;2.73;;
59271;SDS011;45043;51.068;7.026;2024-03-02T03:35:48;2.97;;;2.40;;
59271;SDS011;45043;51.068;7.026;2024-03-02T03:38:49;2.50;;;2.27;;
59271;SDS011;45043;51.068;7.026;2024-03-02T03:41:50;2.70;;;2.50;;
59271;SDS011;45043;51.068;7.026;2024-03-02T03:44:51;2.37;;;2.17;;
59271;SDS011;45043;51.068;7.026;2024-03-02T03:47:53;2.47;;;2.20;;
59271;SDS011;45043;51.068;7.026;2024-03-02T03:50:55;2.50;;;2.00;;
59271;SDS011;45043;51.068;7.026;2024-03-02T03:53:56;2.93;;;2.10;;
59271;SDS011;45043;51.068;7.026;2024-03-02T03:56:56;2.30;;;2.10;;
59271;SDS011;45043;51.068;7.026;2024-03-02T03:59:57;2.30;;;2.10;;
59271;SDS011;45043;51.068;7.026;2024-03-02T04:02:57;2.97;;;2.67;;
59271;SDS011;45043;51.068;7.026;2024-03-02T04:05:58;2.60;;;2.40;;
59271;SDS011;45043;51.068;7.026;2024-03-02T04:08:59;1.90;;;1.70;;
59271;SDS011;45043;51.068;7.026;2024-03-02T04:12:00;2.17;;;1.93;;
59271;SDS011;45043;51.068;7.026;2024-03-02T04:15:01;2.50;;;2.17;;
59271;SDS011;45043;51.068;7.026;2024-03-02T04:18:03;1.87;;;1.77;;
59271;SDS011;45043;51.068;7.026;2024-03-02T04:21:04;2.87;;;2.57;;
59271;SDS011;45043;51.068;7.026;2024-03-02T04:24:05;2.87;;;2.67;;
59271;SDS011;45043;51.068;7.026;2024-03-02T04:27:05;3.40;;;2.17;;
59271;SDS011;45043;51.068;7.026;2024-03-02T04:30:06;3.73;;;2.30;;
59271;SDS011;45043;51.068;7.026;2024-03-02T04:33:07;2.37;;;2.17;;
59271;SDS011;45043;51.068;7.026;2024-03-02T04:36:10;2.53;;;2.00;;
59271;SDS011;45043;51.068;7.026;2024-03-02T04:39:11;2.70;;;2.50;;
59271;SDS011;45043;51.068;7.026;2024-03-02T04:42:12;2.97;;;2.23;;
59271;SDS011;45043;51.068;7.026;2024-03-02T04:45:13;4.67;;;2.73;;
59271;SDS011;45043;51.068;7.026;2024-03-02T04:48:15;2.50;;;2.30;;
59271;SDS011;45043;51.068;7.026;2024-03-02T04:51:15;3.47;;;2.40;;
59271;SDS011;45043;51.068;7.026;2024-03-02T04:54:17;2.70;;;2.50;;
59271;SDS011;45043;51.068;7.026;2024-03-02T04:57:19;3.40;;;2.30;;
59271;SDS011;45043;51.068;7.026;2024-03-02T05:00:20;3.67;;;2.37;;
59271;SDS011;45043;51.068;7.026;2024-03-02T05:03:21;2.30;;;2.10;;
59271;SDS011;45043;51.068;7.026;2024-03-02T05:06:22;2.73;;;2.53;;
59271;SDS011;45043;51.068;7.026;2024-03-02T05:09:25;2.80;;;2.53;;
59271;SDS011;45043;51.068;7.026;2024-03-02T05:12:25;3.73;;;2.80;;
59271;SDS011;45043;51.068;7.026;2024-03-02T05:15:41;2.40;;;2.20;;
59271;SDS011;45043;51.068;7.026;2024-03-02T05:18:43;3.57;;;2.80;;
59271;SDS011;45043;51.068;7.026;2024-03-02T05:21:45;2.97;;;2.50;;
59271;SDS011;45043;51.068;7.026;2024-03-02T05:24:45;3.50;;;2.40;;
59271;SDS011;45043;51.068;7.026;2024-03-02T05:27:46;2.97;;;2.77;;
59271;SDS011;45043;51.068;7.026;2024-03-02T05:30:46;3.77;;;3.27;;
59271;SDS011;45043;51.068;7.026;2024-03-02T05:33:47;4.37;;;2.90;;
59271;SDS011;45043;51.068;7.026;2024-03-02T05:36:48;3.63;;;2.90;;
59271;SDS011;45043;51.068;7.026;2024-03-02T05:39:49;3.43;;;3.10;;
59271;SDS011;45043;51.068;7.026;2024-03-02T05:42:50;3.57;;;3.00;;
59271;SDS011;45043;51.068;7.026;2024-03-02T05:45:50;4.20;;;2.80;;
59271;SDS011;45043;51.068;7.026;2024-03-02T05:48:51;4.10;;;3.70;;
59271;SDS011;45043;51.068;7.026;2024-03-02T05:51:52;4.33;;;3.73;;
59271;SDS011;45043;51.068;7.026;2024-03-02T05:54:53;3.90;;;3.47;;
59271;SDS011;45043;51.068;7.026;2024-03-02T05:57:57;4.93;;;3.17;;
59271;SDS011;45043;51.068;7.026;2024-03-02T06:01:08;3.97;;;3.43;;
59271;SDS011;45043;51.068;7.026;2024-03-02T06:04:11;5.13;;;3.60;;
59271;SDS011;45043;51.068;7.026;2024-03-02T06:07:13;4.97;;;3.50;;
59271;SDS011;45043;51.068;7.026;2024-03-02T06:10:14;4.90;;;3.80;;
59271;SDS011;45043;51.068;7.026;2024-03-02T06:13:15;3.57;;;3.10;;
59271;SDS011;45043;51.068;7.026;2024-03-02T06:16:16;4.93;;;3.20;;
59271;SDS011;45043;51.068;7.026;2024-03-02T06:19:17;5.67;;;3.37;;
59271;SDS011;45043;51.068;7.026;2024-03-02T06:22:18;3.93;;;3.63;;
59271;SDS011;45043;51.068;7.026;2024-03-02T06:25:19;5.03;;;3.77;;
59271;SDS011;45043;51.068;7.026;2024-03-02T06:28:20;4.20;;;3.53;;
59271;SDS011;45043;51.068;7.026;2024-03-02T06:31:21;3.63;;;3.30;;
59271;SDS011;45043;51.068;7.026;2024-03-02T06:34:21;3.50;;;3.07;;
59271;SDS011;45043;51.068;7.026;2024-03-02T06:37:22;3.80;;;3.50;;
59271;SDS011;45043;51.068;7.026;2024-03-02T06:40:23;4.43;;;3.77;;
59271;SDS011;45043;51.068;7.026;2024-03-02T06:43:24;4.30;;;3.67;;
59271;SDS011;45043;51.068;7.026;2024-03-02T06:46:25;3.93;;;3.53;;
59271;SDS011;45043;51.068;7.026;2024-03-02T06:49:26;3.70;;;3.40;;
59271;SDS011;45043;51.068;7.026;2024-03-02T06:52:27;5.23;;;3.57;;
59271;SDS011;45043;51.068;7.026;2024-03-02T06:55:27;3.93;;;3.53;;
59271;SDS011;45043;51.068;7.026;2024-03-02T06:58:28;3.80;;;3.50;;
59271;SDS011;45043;51.068;7.026;2024-03-02T07:01:29;4.83;;;3.77;;
59271;SDS011;45043;51.068;7.026;2024-03-02T07:04:30;3.90;;;3.33;;
59271;SDS011;45043;51.068;7.026;2024-03-02T07:07:30;3.87;;;3.47;;
59271;SDS011;45043;51.068;7.026;2024-03-02T07:10:31;4.00;;;3.63;;
59271;SDS011;45043;51.068;7.026;2024-03-02T07:13:33;3.20;;;2.97;;
59271;SDS011;45043;51.068;7.026;2024-03-02T07:16:33;4.53;;;3.50;;
59271;SDS011;45043;51.068;7.026;2024-03-02T07:19:35;4.83;;;3.53;;
59271;SDS011;45043;51.068;7.026;2024-03-02T07:22:35;4.10;;;3.70;;
59271;SDS011;45043;51.068;7.026;2024-03-02T07:25:37;3.60;;;3.30;;
59271;SDS011;45043;51.068;7.026;2024-03-02T07:28:39;4.47;;;3.30;;
59271;SDS011;45043;51.068;7.026;2024-03-02T07:31:40;4.73;;;3.50;;
59271;SDS011;45043;51.068;7.026;2024-03-02T07:34:41;3.73;;;3.10;;
59271;SDS011;45043;51.068;7.026;2024-03-02T07:37:42;3.83;;;3.13;;
59271;SDS011;45043;51.068;7.026;2024-03-02T07:40:43;5.27;;;3.10;;
59271;SDS011;45043;51.068;7.026;2024-03-02T07:43:44;4.33;;;3.40;;
59271;SDS011;45043;51.068;7.026;2024-03-02T07:46:45;3.80;;;3.23;;
59271;SDS011;45043;51.068;7.026;2024-03-02T07:49:47;3.87;;;3.47;;
59271;SDS011;45043;51.068;7.026;2024-03-02T07:52:47;4.43;;;3.43;;
59271;SDS011;45043;51.068;7.026;2024-03-02T07:55:49;4.33;;;3.33;;
59271;SDS011;45043;51.068;7.026;2024-03-02T07:58:49;3.30;;;3.00;;
59271;SDS011;45043;51.068;7.026;2024-03-02T08:01:50;3.77;;;3.27;;
59271;SDS011;45043;51.068;7.026;2024-03-02T08:04:51;3.43;;;3.13;;
59271;SDS011;45043;51.068;7.026;2024-03-02T08:07:53;3.20;;;2.90;;
59271;SDS011;45043;51.068;7.026;2024-03-02T08:10:54;3.23;;;2.93;;
59271;SDS011;45043;51.068;7.026;2024-03-02T08:13:54;3.90;;;3.10;;
59271;SDS011;45043;51.068;7.026;2024-03-02T08:16:55;3.47;;;3.13;;
59271;SDS011;45043;51.068;7.026;2024-03-02T08:19:55;3.63;;;3.03;;
59271;SDS011;45043;51.068;7.026;2024-03-02T08:22:57;3.10;;;2.70;;
59271;SDS011;45043;51.068;7.026;2024-03-02T08:25:58;2.80;;;2.60;;
59271;SDS011;45043;51.068;7.026;2024-03-02T08:28:59;2.97;;;2.67;;
59271;SDS011;45043;51.068;7.026;2024-03-02T08:32:01;3.63;;;3.03;;
59271;SDS011;45043;51.068;7.026;2024-03-02T08:35:03;3.87;;;2.93;;
59271;SDS011;45043;51.068;7.026;2024-03-02T08:38:05;3.00;;;2.80;;
59271;SDS011;45043;51.068;7.026;2024-03-02T08:41:06;2.87;;;2.60;;
59271;SDS011;45043;51.068;7.026;2024-03-02T08:44:08;4.90;;;2.50;;
59271;SDS011;45043;51.068;7.026;2024-03-02T08:47:09;3.63;;;2.80;;
59271;SDS011;45043;51.068;7.026;2024-03-02T08:50:10;5.20;;;2.97;;
59271;SDS011;45043;51.068;7.026;2024-03-02T08:53:11;2.77;;;2.37;;
59271;SDS011;45043;51.068;7.026;2024-03-02T08:56:12;4.93;;;2.73;;
59271;SDS011;45043;51.068;7.026;2024-03-02T08:59:13;2.80;;;2.60;;
59271;SDS011;45043;51.068;7.026;2024-03-02T09:02:14;3.77;;;2.60;;
59271;SDS011;45043;51.068;7.026;2024-03-02T09:05:15;2.60;;;2.37;;
59271;SDS011;45043;51.068;7.026;2024-03-02T09:08:16;3.83;;;2.70;;
59271;SDS011;45043;51.068;7.026;2024-03-02T09:11:17;3.10;;;2.43;;
59271;SDS011;45043;51.068;7.026;2024-03-02T09:14:18;3.10;;;2.80;;
59271;SDS011;45043;51.068;7.026;2024-03-02T09:17:19;3.73;;;2.97;;
59271;SDS011;45043;51.068;7.026;2024-03-02T09:20:20;4.93;;;2.67;;
59271;SDS011;45043;51.068;7.026;2024-03-02T09:23:22;3.37;;;2.70;;
59271;SDS011;45043;51.068;7.026;2024-03-02T09:26:22;2.67;;;2.47;;
59271;SDS011;45043;51.068;7.026;2024-03-02T09:29:25;3.20;;;2.23;;
59271;SDS011;45043;51.068;7.026;2024-03-02T09:32:25;2.90;;;2.70;;
59271;SDS011;45043;51.068;7.026;2024-03-02T09:35:26;2.80;;;2.57;;
59271;SDS011;45043;51.068;7.026;2024-03-02T09:38:26;4.00;;;2.30;;
59271;SDS011;45043;51.068;7.026;2024-03-02T09:41:28;3.87;;;2.37;;
59271;SDS011;45043;51.068;7.026;2024-03-02T09:44:29;5.63;;;2.50;;
59271;SDS011;45043;51.068;7.026;2024-03-02T09:47:30;4.53;;;2.40;;
59271;SDS011;45043;51.068;7.026;2024-03-02T09:50:31;3.70;;;2.30;;
59271;SDS011;45043;51.068;7.026;2024-03-02T09:53:32;2.37;;;1.80;;
59271;SDS011;45043;51.068;7.026;2024-03-02T09:56:35;3.43;;;2.50;;
59271;SDS011;45043;51.068;7.026;2024-03-02T09:59:36;3.90;;;2.40;;
59271;SDS011;45043;51.068;7.026;2024-03-02T10:02:36;4.57;;;2.30;;
59271;SDS011;45043;51.068;7.026;2024-03-02T10:05:37;2.27;;;1.80;;
59271;SDS011;45043;51.068;7.026;2024-03-02T10:08:43;1.60;;;1.50;;
59271;SDS011;45043;51.068;7.026;2024-03-02T10:11:44;2.80;;;1.73;;
59271;SDS011;45043;51.068;7.026;2024-03-02T10:14:45;2.10;;;1.90;;
59271;SDS011;45043;51.068;7.026;2024-03-02T10:17:48;2.57;;;2.10;;
59271;SDS011;45043;51.068;7.026;2024-03-02T10:20:49;2.30;;;2.10;;
59271;SDS011;45043;51.068;7.026;2024-03-02T10:23:50;3.27;;;2.40;;
59271;SDS011;45043;51.068;7.026;2024-03-02T10:26:51;3.93;;;2.37;;
59271;SDS011;45043;51.068;7.026;2024-03-02T10:29:52;4.60;;;2.43;;
59271;SDS011;45043;51.068;7.026;2024-03-02T10:32:53;3.30;;;2.35;;
59271;SDS011;45043;51.068;7.026;2024-03-02T10:35:55;3.80;;;2.30;;
59271;SDS011;45043;51.068;7.026;2024-03-02T10:38:57;2.87;;;2.20;;
59271;SDS011;45043;51.068;7.026;2024-03-02T10:42:00;2.60;;;2.33;;
59271;SDS011;45043;51.068;7.026;2024-03-02T10:45:05;3.03;;;2.30;;
59271;SDS011;45043;51.068;7.026;2024-03-02T10:48:07;7.20;;;2.63;;
59271;SDS011;45043;51.068;7.026;2024-03-02T10:51:10;3.10;;;2.10;;
59271;SDS011;45043;51.068;7.026;2024-03-02T10:54:12;2.50;;;1.70;;
59271;SDS011;45043;51.068;7.026;2024-03-02T10:57:13;2.63;;;1.93;;
59271;SDS011;45043;51.068;7.026;2024-03-02T11:00:17;5.53;;;2.00;;
59271;SDS011;45043;51.068;7.026;2024-03-02T11:03:25;2.70;;;2.00;;
59271;SDS011;45043;51.068;7.026;2024-03-02T11:06:28;1.93;;;1.70;;
59271;SDS011;45043;51.068;7.026;2024-03-02T11:09:29;2.77;;;1.53;;
59271;SDS011;45043;51.068;7.026;2024-03-02T11:12:35;4.37;;;2.10;;
59271;SDS011;45043;51.068;7.026;2024-03-02T11:15:45;2.20;;;1.67;;
59271;SDS011;45043;51.068;7.026;2024-03-02T11:18:46;2.20;;;1.70;;
59271;SDS011;45043;51.068;7.026;2024-03-02T11:21:49;3.37;;;1.73;;
59271;SDS011;45043;51.068;7.026;2024-03-02T11:24:52;2.63;;;1.60;;
59271;SDS011;45043;51.068;7.026;2024-03-02T11:30:54;2.57;;;2.10;;
59271;SDS011;45043;51.068;7.026;2024-03-02T11:33:55;3.50;;;1.70;;
59271;SDS011;45043;51.068;7.026;2024-03-02T11:36:56;1.87;;;1.60;;
59271;SDS011;45043;51.068;7.026;2024-03-02T11:39:59;3.90;;;2.03;;
59271;SDS011;45043;51.068;7.026;2024-03-02T11:43:00;2.93;;;1.80;;
59271;SDS011;45043;51.068;7.026;2024-03-02T11:46:03;2.60;;;1.80;;
59271;SDS011;45043;51.068;7.026;2024-03-02T11:49:07;2.80;;;1.90;;
59271;SDS011;45043;51.068;7.026;2024-03-02T11:52:10;3.83;;;1.63;;
59271;SDS011;45043;51.068;7.026;2024-03-02T11:55:11;5.63;;;2.03;;
59271;SDS011;45043;51.068;7.026;2024-03-02T11:58:14;5.10;;;2.00;;
59271;SDS011;45043;51.068;7.026;2024-03-02T12:01:25;2.30;;;1.50;;
59271;SDS011;45043;51.068;7.026;2024-03-02T12:04:26;2.50;;;1.73;;
59271;SDS011;45043;51.068;7.026;2024-03-02T12:07:27;1.83;;;1.40;;
59271;SDS011;45043;51.068;7.026;2024-03-02T12:10:28;4.00;;;2.07;;
59271;SDS011;45043;51.068;7.026;2024-03-02T12:13:29;2.53;;;1.67;;
59271;SDS011;45043;51.068;7.026;2024-03-02T12:16:30;2.57;;;1.80;;
59271;SDS011;45043;51.068;7.026;2024-03-02T12:19:32;1.60;;;1.50;;
59271;SDS011;45043;51.068;7.026;2024-03-02T12:22:34;1.70;;;1.60;;
59271;SDS011;45043;51.068;7.026;2024-03-02T12:25:35;2.93;;;1.70;;
59271;SDS011;45043;51.068;7.026;2024-03-02T12:28:36;4.20;;;1.60;;
59271;SDS011;45043;51.068;7.026;2024-03-02T12:31:37;1.60;;;1.43;;
59271;SDS011;45043;51.068;7.026;2024-03-02T12:34:41;2.53;;;1.50;;
59271;SDS011;45043;51.068;7.026;2024-03-02T12:37:46;2.10;;;1.60;;
59271;SDS011;45043;51.068;7.026;2024-03-02T12:40:49;2.87;;;1.83;;
59271;SDS011;45043;51.068;7.026;2024-03-02T12:43:51;2.23;;;2.00;;
59271;SDS011;45043;51.068;7.026;2024-03-02T12:46:52;3.07;;;1.90;;
59271;SDS011;45043;51.068;7.026;2024-03-02T12:49:53;2.23;;;1.80;;
59271;SDS011;45043;51.068;7.026;2024-03-02T12:52:56;3.30;;;2.13;;
59271;SDS011;45043;51.068;7.026;2024-03-02T12:55:57;3.63;;;2.00;;
59271;SDS011;45043;51.068;7.026;2024-03-02T12:59:00;3.00;;;2.10;;
59271;SDS011;45043;51.068;7.026;2024-03-02T13:02:01;6.17;;;2.03;;
59271;SDS011;45043;51.068;7.026;2024-03-02T13:05:02;3.27;;;1.77;;
59271;SDS011;45043;51.068;7.026;2024-03-02T13:08:04;1.73;;;1.60;;
59271;SDS011;45043;51.068;7.026;2024-03-02T13:11:08;2.30;;;1.70;;
59271;SDS011;45043;51.068;7.026;2024-03-02T13:14:11;4.07;;;1.60;;
59271;SDS011;45043;51.068;7.026;2024-03-02T13:17:11;1.40;;;1.30;;
59271;SDS011;45043;51.068;7.026;2024-03-02T13:20:14;1.70;;;1.60;;
59271;SDS011;45043;51.068;7.026;2024-03-02T13:23:15;3.17;;;2.17;;
59271;SDS011;45043;51.068;7.026;2024-03-02T13:26:16;2.07;;;1.97;;
59271;SDS011;45043;51.068;7.026;2024-03-02T13:29:17;2.40;;;1.83;;
59271;SDS011;45043;51.068;7.026;2024-03-02T13:32:19;2.10;;;1.90;;
59271;SDS011;45043;51.068;7.026;2024-03-02T13:35:24;1.60;;;1.50;;
59271;SDS011;45043;51.068;7.026;2024-03-02T13:38:25;2.37;;;1.80;;
59271;SDS011;45043;51.068;7.026;2024-03-02T13:41:27;2.70;;;1.80;;
59271;SDS011;45043;51.068;7.026;2024-03-02T13:44:28;1.70;;;1.43;;
59271;SDS011;45043;51.068;7.026;2024-03-02T13:47:29;1.40;;;1.30;;
59271;SDS011;45043;51.068;7.026;2024-03-02T13:50:29;1.70;;;1.60;;
59271;SDS011;45043;51.068;7.026;2024-03-02T13:53:31;1.70;;;1.60;;
59271;SDS011;45043;51.068;7.026;2024-03-02T13:56:33;1.80;;;1.70;;
59271;SDS011;45043;51.068;7.026;2024-03-02T13:59:34;2.90;;;1.50;;
59271;SDS011;45043;51.068;7.026;2024-03-02T14:02:36;2.23;;;1.80;;
59271;SDS011;45043;51.068;7.026;2024-03-02T14:05:37;2.00;;;1.90;;
59271;SDS011;45043;51.068;7.026;2024-03-02T14:08:38;2.10;;;1.90;;
59271;SDS011;45043;51.068;7.026;2024-03-02T14:11:40;1.90;;;1.70;;
59271;SDS011;45043;51.068;7.026;2024-03-02T14:14:41;1.67;;;1.13;;
59271;SDS011;45043;51.068;7.026;2024-03-02T14:17:42;1.40;;;1.30;;
59271;SDS011;45043;51.068;7.026;2024-03-02T14:20:44;2.07;;;1.57;;
59271;SDS011;45043;51.068;7.026;2024-03-02T14:23:45;2.30;;;1.53;;
59271;SDS011;45043;51.068;7.026;2024-03-02T14:26:46;1.57;;;1.33;;
59271;SDS011;45043;51.068;7.026;2024-03-02T14:29:47;2.17;;;1.50;;
59271;SDS011;45043;51.068;7.026;2024-03-02T14:32:47;1.93;;;1.57;;
59271;SDS011;45043;51.068;7.026;2024-03-02T14:35:48;1.53;;;1.43;;
59271;SDS011;45043;51.068;7.026;2024-03-02T14:38:49;2.13;;;1.60;;
59271;SDS011;45043;51.068;7.026;2024-03-02T14:41:50;2.00;;;1.80;;
59271;SDS011;45043;51.068;7.026;2024-03-02T14:44:51;3.73;;;1.57;;
59271;SDS011;45043;51.068;7.026;2024-03-02T14:47:52;2.20;;;1.30;;
59271;SDS011;45043;51.068;7.026;2024-03-02T14:50:53;2.30;;;1.60;;
59271;SDS011;45043;51.068;7.026;2024-03-02T14:53:54;1.70;;;1.60;;
59271;SDS011;45043;51.068;7.026;2024-03-02T14:56:55;1.60;;;1.50;;
59271;SDS011;45043;51.068;7.026;2024-03-02T14:59:57;1.73;;;1.50;;
59271;SDS011;45043;51.068;7.026;2024-03-02T15:02:58;3.07;;;1.47;;
59271;SDS011;45043;51.068;7.026;2024-03-02T15:05:59;1.90;;;1.57;;
59271;SDS011;45043;51.068;7.026;2024-03-02T15:09:01;2.73;;;1.70;;
59271;SDS011;45043;51.068;7.026;2024-03-02T15:12:03;1.70;;;1.33;;
59271;SDS011;45043;51.068;7.026;2024-03-02T15:15:06;1.50;;;1.30;;
59271;SDS011;45043;51.068;7.026;2024-03-02T15:18:07;2.53;;;1.13;;
59271;SDS011;45043;51.068;7.026;2024-03-02T15:21:10;1.63;;;1.27;;
59271;SDS011;45043;51.068;7.026;2024-03-02T15:24:10;1.40;;;1.20;;
59271;SDS011;45043;51.068;7.026;2024-03-02T15:27:10;1.77;;;1.50;;
59271;SDS011;45043;51.068;7.026;2024-03-02T15:30:11;1.50;;;1.40;;
59271;SDS011;45043;51.068;7.026;2024-03-02T15:33:12;2.23;;;1.30;;
59271;SDS011;45043;51.068;7.026;2024-03-02T15:36:12;1.60;;;1.50;;
59271;SDS011;45043;51.068;7.026;2024-03-02T15:39:13;1.60;;;1.43;;
59271;SDS011;45043;51.068;7.026;2024-03-02T15:42:14;1.33;;;1.23;;
59271;SDS011;45043;51.068;7.026;2024-03-02T15:45:15;1.67;;;1.40;;
59271;SDS011;45043;51.068;7.026;2024-03-02T15:48:17;2.20;;;1.40;;
59271;SDS011;45043;51.068;7.026;2024-03-02T15:51:17;1.40;;;1.30;;
59271;SDS011;45043;51.068;7.026;2024-03-02T15:54:20;2.40;;;1.73;;
59271;SDS011;45043;51.068;7.026;2024-03-02T15:57:21;2.27;;;1.60;;
59271;SDS011;45043;51.068;7.026;2024-03-02T16:00:25;2.10;;;1.70;;
59271;SDS011;45043;51.068;7.026;2024-03-02T16:03:27;3.17;;;1.60;;
59271;SDS011;45043;51.068;7.026;2024-03-02T16:06:29;1.60;;;1.50;;
59271;SDS011;45043;51.068;7.026;2024-03-02T16:09:30;1.57;;;1.47;;
59271;SDS011;45043;51.068;7.026;2024-03-02T16:12:31;1.50;;;1.40;;
59271;SDS011;45043;51.068;7.026;2024-03-02T16:15:31;2.33;;;1.50;;
59271;SDS011;45043;51.068;7.026;2024-03-02T16:18:35;1.93;;;1.63;;
59271;SDS011;45043;51.068;7.026;2024-03-02T16:21:35;3.80;;;1.87;;
59271;SDS011;45043;51.068;7.026;2024-03-02T16:24:36;3.50;;;1.50;;
59271;SDS011;45043;51.068;7.026;2024-03-02T16:27:37;1.60;;;1.50;;
59271;SDS011;45043;51.068;7.026;2024-03-02T16:30:37;1.67;;;1.30;;
59271;SDS011;45043;51.068;7.026;2024-03-02T16:33:39;3.60;;;2.00;;
59271;SDS011;45043;51.068;7.026;2024-03-02T16:36:40;3.37;;;1.90;;
59271;SDS011;45043;51.068;7.026;2024-03-02T16:39:42;1.60;;;1.50;;
59271;SDS011;45043;51.068;7.026;2024-03-02T16:42:43;1.53;;;1.30;;
59271;SDS011;45043;51.068;7.026;2024-03-02T16:45:44;1.77;;;1.40;;
59271;SDS011;45043;51.068;7.026;2024-03-02T16:48:45;1.70;;;1.60;;
59271;SDS011;45043;51.068;7.026;2024-03-02T16:51:45;1.37;;;1.27;;
59271;SDS011;45043;51.068;7.026;2024-03-02T16:54:50;1.40;;;1.30;;
59271;SDS011;45043;51.068;7.026;2024-03-02T16:57:51;1.70;;;1.53;;
59271;SDS011;45043;51.068;7.026;2024-03-02T17:00:54;2.03;;;1.60;;
59271;SDS011;45043;51.068;7.026;2024-03-02T17:03:55;1.60;;;1.50;;
59271;SDS011;45043;51.068;7.026;2024-03-02T17:06:56;3.33;;;1.70;;
59271;SDS011;45043;51.068;7.026;2024-03-02T17:09:58;1.93;;;1.60;;
59271;SDS011;45043;51.068;7.026;2024-03-02T17:12:59;1.97;;;1.70;;
59271;SDS011;45043;51.068;7.026;2024-03-02T17:16:00;2.20;;;2.00;;
59271;SDS011;45043;51.068;7.026;2024-03-02T17:19:01;1.87;;;1.70;;
59271;SDS011;45043;51.068;7.026;2024-03-02T17:22:02;1.63;;;1.53;;
59271;SDS011;45043;51.068;7.026;2024-03-02T17:25:02;2.73;;;1.80;;
59271;SDS011;45043;51.068;7.026;2024-03-02T17:28:22;1.60;;;1.50;;
59271;SDS011;45043;51.068;7.026;2024-03-02T17:31:25;2.83;;;2.00;;
59271;SDS011;45043;51.068;7.026;2024-03-02T17:34:27;1.80;;;1.70;;
59271;SDS011;45043;51.068;7.026;2024-03-02T17:37:29;2.33;;;1.80;;
59271;SDS011;45043;51.068;7.026;2024-03-02T17:40:30;1.77;;;1.67;;
59271;SDS011;45043;51.068;7.026;2024-03-02T17:43:32;2.00;;;1.70;;
59271;SDS011;45043;51.068;7.026;2024-03-02T17:46:33;2.17;;;1.80;;
59271;SDS011;45043;51.068;7.026;2024-03-02T17:49:34;1.87;;;1.60;;
59271;SDS011;45043;51.068;7.026;2024-03-02T17:52:35;2.00;;;1.83;;
59271;SDS011;45043;51.068;7.026;2024-03-02T17:55:35;1.77;;;1.67;;
59271;SDS011;45043;51.068;7.026;2024-03-02T17:58:37;2.10;;;1.90;;
59271;SDS011;45043;51.068;7.026;2024-03-02T18:01:39;2.00;;;1.80;;
59271;SDS011;45043;51.068;7.026;2024-03-02T18:04:40;1.63;;;1.53;;
59271;SDS011;45043;51.068;7.026;2024-03-02T18:07:42;2.20;;;2.00;;
59271;SDS011;45043;51.068;7.026;2024-03-02T18:10:43;1.90;;;1.70;;
59271;SDS011;45043;51.068;7.026;2024-03-02T18:13:44;2.43;;;2.23;;
59271;SDS011;45043;51.068;7.026;2024-03-02T18:16:46;2.03;;;1.87;;
59271;SDS011;45043;51.068;7.026;2024-03-02T18:19:49;1.70;;;1.60;;